| time (UTC) | temp F | wind direction | speed MPH | gust MPH | rain 1hr in | rain 24hr in | rain mn in | humidity % | barometer mb |
| 20260506001521 | 67 | 3 | 0.0 | 1.0 | 0.00 | 0.00 | 0.00 | 53 | 1014.4 |
| 20260506000518 | 68 | 0.0 | 1.0 | 0.00 | 0.00 | 0.00 | 53 | 1014.4 | |
| 20260505235555 | 68 | 154 | 0.0 | 1.0 | 0.00 | 0.00 | 0.00 | 53 | 1014.6 |
| 20260505234532 | 69 | 0.0 | 0.0 | 0.00 | 0.00 | 0.00 | 50 | 1014.6 | |
| 20260505233529 | 69 | 138 | 0.0 | 1.0 | 0.00 | 0.00 | 0.00 | 51 | 1014.5 |
| 20260505232526 | 70 | 0.0 | 1.0 | 0.00 | 0.00 | 0.00 | 49 | 1014.5 | |
| 20260505231523 | 70 | 188 | 0.0 | 1.0 | 0.00 | 0.00 | 0.00 | 47 | 1014.3 |
| 20260505230520 | 70 | 166 | 0.0 | 1.0 | 0.00 | 0.00 | 0.00 | 48 | 1014.6 |
| 20260505225517 | 70 | 0.0 | 1.0 | 0.00 | 0.00 | 0.00 | 47 | 1014.6 | |
| 20260505224535 | 70 | 0.0 | 2.0 | 0.00 | 0.00 | 0.00 | 45 | 1014.3 | |
| 20260505223532 | 71 | 0.0 | 1.0 | 0.00 | 0.00 | 0.00 | 45 | 1014.5 | |
| 20260505222529 | 72 | 0.0 | 1.0 | 0.00 | 0.00 | 0.00 | 42 | 1014.8 | |
| 20260505221527 | 72 | 325 | 0.0 | 2.0 | 0.00 | 0.00 | 0.00 | 42 | 1014.9 |
| 20260505220524 | 71 | 236 | 1.0 | 3.0 | 0.00 | 0.00 | 0.00 | 42 | 1014.9 |
| 20260505215520 | 71 | 220 | 2.0 | 4.0 | 0.00 | 0.00 | 0.00 | 41 | 1014.9 |
| 20260505214517 | 72 | 202 | 3.0 | 4.0 | 0.00 | 0.00 | 0.00 | 39 | 1014.5 |
| 20260505213535 | 72 | 188 | 3.0 | 5.0 | 0.00 | 0.00 | 0.00 | 40 | 1014.6 |
| 20260505212532 | 73 | 214 | 3.0 | 4.0 | 0.00 | 0.00 | 0.00 | 38 | 1014.6 |
| 20260505211529 | 72 | 222 | 3.0 | 5.0 | 0.00 | 0.00 | 0.00 | 38 | 1014.8 |
| 20260505210526 | 73 | 198 | 3.0 | 6.0 | 0.00 | 0.00 | 0.00 | 37 | 1014.6 |
| 20260505205523 | 73 | 201 | 2.0 | 4.0 | 0.00 | 0.00 | 0.00 | 38 | 1014.8 |
| 20260505204520 | 72 | 218 | 2.0 | 3.0 | 0.00 | 0.00 | 0.00 | 39 | 1014.9 |
| 20260505203517 | 73 | 205 | 3.0 | 6.0 | 0.00 | 0.00 | 0.00 | 37 | 1014.9 |
| 20260505202554 | 73 | 215 | 3.0 | 5.0 | 0.00 | 0.00 | 0.00 | 39 | 1014.9 |
| 20260505201531 | 73 | 202 | 3.0 | 5.0 | 0.00 | 0.00 | 0.00 | 39 | 1014.9 |
| 20260505200528 | 73 | 195 | 3.0 | 6.0 | 0.00 | 0.00 | 0.00 | 38 | 1015.0 |
| 20260505195525 | 72 | 208 | 3.0 | 4.0 | 0.00 | 0.00 | 0.00 | 38 | 1015.0 |
| 20260505194523 | 72 | 202 | 3.0 | 5.0 | 0.00 | 0.00 | 0.00 | 40 | 1015.4 |
| 20260505193520 | 73 | 219 | 3.0 | 4.0 | 0.00 | 0.00 | 0.00 | 40 | 1015.4 |
| 20260505192517 | 73 | 223 | 3.0 | 5.0 | 0.00 | 0.00 | 0.00 | 40 | 1015.6 |
| 20260505191534 | 73 | 239 | 2.0 | 5.0 | 0.00 | 0.00 | 0.00 | 39 | 1015.6 |
| 20260505190531 | 74 | 221 | 3.0 | 4.0 | 0.00 | 0.00 | 0.00 | 37 | 1015.8 |
| 20260505185528 | 73 | 212 | 4.0 | 6.0 | 0.00 | 0.00 | 0.00 | 37 | 1015.8 |
| 20260505184525 | 73 | 204 | 4.0 | 6.0 | 0.00 | 0.00 | 0.00 | 37 | 1016.0 |
| 20260505183543 | 73 | 227 | 3.0 | 5.0 | 0.00 | 0.00 | 0.00 | 38 | 1015.8 |
| 20260505182540 | 73 | 216 | 3.0 | 6.0 | 0.00 | 0.00 | 0.00 | 39 | 1015.9 |
| 20260505181516 | 72 | 222 | 2.0 | 4.0 | 0.00 | 0.00 | 0.00 | 42 | 1016.1 |
| 20260505180534 | 73 | 207 | 2.0 | 5.0 | 0.00 | 0.00 | 0.00 | 42 | 1016.4 |
| 20260505175531 | 72 | 233 | 3.0 | 4.0 | 0.00 | 0.00 | 0.00 | 42 | 1016.6 |
| 20260505174548 | 72 | 190 | 3.0 | 6.0 | 0.00 | 0.00 | 0.00 | 43 | 1016.7 |
| 20260505173525 | 71 | 188 | 3.0 | 6.0 | 0.00 | 0.00 | 0.00 | 44 | 1016.9 |
| 20260505172522 | 72 | 207 | 3.0 | 6.0 | 0.00 | 0.00 | 0.00 | 43 | 1017.0 |
| 20260505171519 | 73 | 281 | 3.0 | 5.0 | 0.00 | 0.00 | 0.00 | 42 | 1017.1 |
| 20260505170517 | 71 | 239 | 3.0 | 5.0 | 0.00 | 0.00 | 0.00 | 40 | 1017.1 |
| 20260505165534 | 70 | 202 | 3.0 | 5.0 | 0.00 | 0.00 | 0.00 | 43 | 1017.2 |
| 20260505164531 | 70 | 198 | 3.0 | 5.0 | 0.00 | 0.00 | 0.00 | 42 | 1017.1 |
| 20260505163528 | 71 | 183 | 4.0 | 8.0 | 0.00 | 0.00 | 0.00 | 41 | 1016.9 |
| 20260505162525 | 71 | 263 | 3.0 | 7.0 | 0.00 | 0.00 | 0.00 | 42 | 1017.1 |
| 20260505161522 | 70 | 229 | 3.0 | 6.0 | 0.00 | 0.00 | 0.00 | 44 | 1017.1 |
| 20260505160519 | 69 | 197 | 3.0 | 6.0 | 0.00 | 0.00 | 0.00 | 43 | 1017.1 |
| 20260505152527 | 68 | 231 | 2.0 | 4.0 | 0.00 | 0.00 | 0.00 | 57 | 1017.5 |
| 20260505151524 | 67 | 218 | 2.0 | 5.0 | 0.00 | 0.00 | 0.00 | 59 | 1017.4 |
| 20260505150542 | 66 | 226 | 2.0 | 4.0 | 0.00 | 0.00 | 0.00 | 59 | 1017.8 |
| 20260505140524 | 61 | 243 | 2.0 | 4.0 | 0.00 | 0.00 | 0.00 | 63 | 1017.5 |
| 20260505124522 | 57 | 193 | 3.0 | 5.0 | 0.00 | 0.00 | 0.00 | 70 | 1016.7 |
| 20260505123519 | 57 | 197 | 3.0 | 4.0 | 0.00 | 0.00 | 0.00 | 68 | 1016.5 |
| 20260505122536 | 57 | 196 | 1.0 | 3.0 | 0.00 | 0.00 | 0.00 | 65 | 1016.5 |
| 20260505121534 | 58 | 210 | 1.0 | 3.0 | 0.00 | 0.00 | 0.00 | 63 | 1016.5 |
| 20260505120530 | 58 | 200 | 1.0 | 3.0 | 0.00 | 0.00 | 0.00 | 60 | 1016.3 |
| 20260505115548 | 57 | 175 | 1.0 | 2.0 | 0.00 | 0.00 | 0.00 | 61 | 1016.5 |
| 20260505114525 | 57 | 260 | 0.0 | 2.0 | 0.00 | 0.00 | 0.00 | 60 | 1016.3 |
| 20260505113522 | 56 | 276 | 1.0 | 2.0 | 0.00 | 0.00 | 0.00 | 60 | 1016.0 |
| 20260505112519 | 56 | 7 | 1.0 | 3.0 | 0.00 | 0.00 | 0.00 | 60 | 1015.9 |
| 20260505111516 | 57 | 4 | 1.0 | 2.0 | 0.00 | 0.00 | 0.00 | 59 | 1015.8 |
| 20260505110533 | 56 | 29 | 1.0 | 2.0 | 0.00 | 0.00 | 0.00 | 59 | 1015.7 |
| 20260505101519 | 57 | 7 | 1.0 | 2.0 | 0.00 | 0.00 | 0.00 | 57 | 1015.4 |
| 20260505100516 | 57 | 147 | 1.0 | 2.0 | 0.00 | 0.00 | 0.00 | 58 | 1015.6 |
| 20260505095534 | 57 | 115 | 1.0 | 2.0 | 0.00 | 0.00 | 0.00 | 57 | 1015.6 |
| 20260505094530 | 56 | 141 | 1.0 | 3.0 | 0.00 | 0.00 | 0.00 | 59 | 1015.5 |
| 20260505093528 | 56 | 60 | 1.0 | 3.0 | 0.00 | 0.00 | 0.00 | 63 | 1015.7 |
| 20260505092525 | 57 | 128 | 2.0 | 3.0 | 0.00 | 0.00 | 0.00 | 58 | 1015.7 |
| 20260505091522 | 58 | 47 | 1.0 | 2.0 | 0.00 | 0.00 | 0.00 | 56 | 1015.6 |
| 20260505090519 | 58 | 131 | 1.0 | 2.0 | 0.00 | 0.00 | 0.00 | 57 | 1015.7 |
| 20260505085516 | 57 | 68 | 1.0 | 2.0 | 0.00 | 0.00 | 0.00 | 57 | 1015.7 |
| 20260505084534 | 57 | 89 | 1.0 | 3.0 | 0.00 | 0.00 | 0.00 | 57 | 1015.9 |
| 20260505083551 | 57 | 37 | 1.0 | 2.0 | 0.00 | 0.00 | 0.00 | 57 | 1015.9 |
| 20260505082528 | 57 | 69 | 1.0 | 2.0 | 0.00 | 0.00 | 0.00 | 59 | 1015.9 |
| 20260505081525 | 57 | 60 | 1.0 | 3.0 | 0.00 | 0.00 | 0.00 | 58 | 1015.8 |
| 20260505080522 | 57 | 168 | 1.0 | 3.0 | 0.00 | 0.00 | 0.00 | 58 | 1016.0 |
| 20260505075519 | 58 | 157 | 2.0 | 4.0 | 0.00 | 0.00 | 0.00 | 57 | 1015.7 |
| 20260505074516 | 57 | 165 | 1.0 | 3.0 | 0.00 | 0.00 | 0.00 | 58 | 1016.0 |
| 20260505073534 | 58 | 61 | 1.0 | 4.0 | 0.00 | 0.00 | 0.00 | 58 | 1015.8 |
| 20260505072530 | 58 | 53 | 2.0 | 3.0 | 0.00 | 0.00 | 0.00 | 56 | 1015.8 |
| 20260505071527 | 59 | 4 | 1.0 | 4.0 | 0.00 | 0.00 | 0.00 | 55 | 1015.9 |
| 20260505070524 | 59 | 345 | 1.0 | 2.0 | 0.00 | 0.00 | 0.00 | 55 | 1015.8 |
| 20260505065522 | 59 | 117 | 1.0 | 3.0 | 0.00 | 0.00 | 0.00 | 56 | 1015.9 |
| 20260505064519 | 59 | 347 | 2.0 | 3.0 | 0.00 | 0.00 | 0.00 | 59 | 1016.0 |
| 20260505063516 | 59 | 318 | 1.0 | 3.0 | 0.00 | 0.00 | 0.00 | 55 | 1016.0 |
| 20260505062533 | 59 | 22 | 1.0 | 3.0 | 0.00 | 0.00 | 0.00 | 54 | 1016.0 |
| 20260505061530 | 59 | 27 | 1.0 | 3.0 | 0.00 | 0.00 | 0.00 | 54 | 1016.0 |
| 20260505060527 | 59 | 346 | 2.0 | 4.0 | 0.00 | 0.00 | 0.00 | 56 | 1016.1 |
| 20260505055524 | 60 | 11 | 1.0 | 4.0 | 0.00 | 0.00 | 0.00 | 53 | 1016.1 |
| 20260505054602 | 60 | 355 | 2.0 | 4.0 | 0.00 | 0.00 | 0.00 | 53 | 1016.3 |
| 20260505053519 | 60 | 4 | 2.0 | 4.0 | 0.00 | 0.00 | 0.00 | 52 | 1016.4 |
| 20260505052516 | 60 | 149 | 1.0 | 3.0 | 0.00 | 0.00 | 0.00 | 53 | 1016.3 |
| 20260505051533 | 60 | 325 | 0.0 | 2.0 | 0.00 | 0.00 | 0.00 | 54 | 1016.4 |
| 20260505050530 | 59 | 1 | 3.0 | 6.0 | 0.00 | 0.00 | 0.00 | 56 | 1016.3 |
| 20260505041516 | 61 | 174 | 2.0 | 5.0 | 0.00 | 0.00 | 0.00 | 52 | 1016.1 |
| 20260505040533 | 61 | 75 | 2.0 | 5.0 | 0.00 | 0.00 | 0.00 | 52 | 1016.2 |
| 20260505035550 | 62 | 191 | 2.0 | 5.0 | 0.00 | 0.00 | 0.00 | 52 | 1016.1 |
| 20260505034527 | 62 | 167 | 2.0 | 5.0 | 0.00 | 0.00 | 0.00 | 51 | 1016.3 |
| 20260505033524 | 62 | 183 | 1.0 | 7.0 | 0.00 | 0.00 | 0.00 | 51 | 1016.3 |
| 20260505032541 | 62 | 191 | 2.0 | 5.0 | 0.00 | 0.00 | 0.00 | 52 | 1016.4 |
| 20260505031519 | 62 | 221 | 2.0 | 5.0 | 0.00 | 0.00 | 0.00 | 52 | 1016.3 |
| 20260505030516 | 62 | 208 | 1.0 | 3.0 | 0.00 | 0.00 | 0.00 | 54 | 1016.3 |
| 20260505025533 | 62 | 168 | 0.0 | 1.0 | 0.00 | 0.00 | 0.00 | 55 | 1016.4 |
| 20260505024530 | 62 | 2 | 0.0 | 1.0 | 0.00 | 0.00 | 0.00 | 55 | 1016.3 |
| 20260505023527 | 63 | 177 | 0.0 | 2.0 | 0.00 | 0.00 | 0.00 | 56 | 1016.3 |
| 20260505022524 | 64 | 162 | 0.0 | 2.0 | 0.00 | 0.00 | 0.00 | 54 | 1016.2 |
| 20260505021522 | 64 | 0.0 | 1.0 | 0.00 | 0.00 | 0.00 | 54 | 1016.1 | |
| 20260505020539 | 64 | 0.0 | 1.0 | 0.00 | 0.00 | 0.00 | 55 | 1016.1 | |
| 20260505015516 | 64 | 0.0 | 1.0 | 0.00 | 0.00 | 0.00 | 55 | 1015.9 | |
| 20260505014533 | 64 | 158 | 0.0 | 1.0 | 0.00 | 0.00 | 0.00 | 55 | 1015.8 |
| 20260505013530 | 64 | 159 | 0.0 | 2.0 | 0.00 | 0.00 | 0.00 | 55 | 1015.6 |
| 20260505012527 | 64 | 0.0 | 1.0 | 0.00 | 0.00 | 0.00 | 56 | 1015.7 | |
| 20260505011524 | 65 | 0.0 | 0.0 | 0.00 | 0.00 | 0.00 | 56 | 1015.6 | |
| 20260505010522 | 65 | 0.0 | 0.0 | 0.00 | 0.00 | 0.00 | 57 | 1015.5 | |
| 20260505005519 | 65 | 0.0 | 1.0 | 0.00 | 0.00 | 0.00 | 58 | 1015.5 | |
| 20260505004536 | 65 | 0.0 | 0.0 | 0.00 | 0.00 | 0.00 | 56 | 1015.6 | |
| 20260505003533 | 66 | 0.0 | 1.0 | 0.00 | 0.00 | 0.00 | 54 | 1015.5 | |
| 20260505002550 | 67 | 0.0 | 0.0 | 0.00 | 0.00 | 0.00 | 51 | 1015.3 |